Last 48 Hours

Kelseyville-South

Hourly Data | America/Los_Angeles
as of 6/19/21 4:46 PM PDT
Date & Time Temp (°F) RH (%) Dew Pt (°F) Wet Bulb (°F) Wind Dir (°) Wind Spd (mph) Wind Gust (mph) Wind Gst Dir (°) Solar Rad (W/m2) Leaf Wet (mins) Latest Rain (In) Daily Rain (In) Daily Min Temp (°F) Daily Max Temp (°F) Daily ETo (in) Daily Leaf Wet Hrs (hrs)
6/19/21 - 1600 101.4 11 36.5 59.0 SSW | 211 8.8 15.2 SW | 232 922 0.0 0.00 0.00 55.9 102.9 0.244 0.0
6/19/21 - 1500 102.2 9 33.3 58.4 SW | 220 6.4 13.8 SSW | 198 1,030 0.0 0.00 0.00 55.9 102.9 0.207 0.0
6/19/21 - 1400 101.0 10 33.1 58.1 SSE | 158 4.9 11.5 ESE | 115 1,055 0.0 0.00 0.00 55.9 102.4 0.169 0.0
6/19/21 - 1300 98.4 12 37.0 58.8 ENE | 62 5.7 13.2 NE | 50 1,057 0.0 0.00 0.00 55.9 99.6 0.132 0.0
6/19/21 - 1200 93.4 22 48.3 62.2 NNE | 13 4.9 11.1 NNE | 26 985 0.0 0.00 0.00 55.9 96.9 0.095 0.0
6/19/21 - 1100 87.8 31 52.9 63.5 N | 1 3.8 8.1 NE | 50 856 0.0 0.00 0.00 55.9 90.7 0.063 0.0
6/19/21 - 1000 83.0 34 51.9 62.2 NNW | 340 1.7 5.4 NNW | 344 683 0.0 0.00 0.00 55.9 85.2 0.036 0.0
6/19/21 - 0900 77.9 38 50.5 60.4 NNW | 348 1.3 4.4 NW | 310 482 0.0 0.00 0.00 55.9 80.1 0.017 0.0
6/19/21 - 0800 70.7 43 46.9 56.7 SE | 129 0.0 1.7 S | 173 273 0.0 0.00 0.00 55.9 76.9 0.005 0.0
6/19/21 - 0700 59.8 66 48.4 53.9 S | 171 0.4 2.4 S | 181 86 0.0 0.00 0.00 55.9 65.2 0.000 0.0
6/19/21 - 0600 56.4 73 47.8 52.3 S | 173 1.2 2.7 SSW | 210 3 0.0 0.00 0.00 55.9 65.2 0.000 0.0
6/19/21 - 0500 57.6 72 48.6 53.2 SSE | 157 0.9 3.1 SSE | 157 0 0.0 0.00 0.00 56.8 65.2 0.000 0.0
6/19/21 - 0400 59.9 65 47.9 53.7 S | 188 1.1 3.1 S | 181 0 0.0 0.00 0.00 58.0 65.2 0.000 0.0
6/19/21 - 0300 61.1 62 48.1 54.3 S | 189 1.5 4.1 SSW | 205 0 0.0 0.00 0.00 60.2 65.2 0.000 0.0
6/19/21 - 0200 64.3 54 47.3 55.0 S | 178 1.0 2.4 S | 172 0 0.0 0.00 0.00 63.4 65.2 0.000 0.0
6/19/21 - 0100 65.6 53 48.2 55.9 SSE | 165 1.2 4.4 SE | 126 0 0.0 0.00 0.00 53.5 105.5 0.325 0.0
6/19/21 - 0000 69.6 44 46.9 56.4 S | 170 1.6 5.8 E | 98 0 0.0 0.00 0.00 53.5 105.5 0.325 0.0
6/18/21 - 2300 74.4 36 45.5 57.0 SSE | 157 2.5 5.1 SSE | 151 0 0.0 0.00 0.00 53.5 105.5 0.325 0.0
6/18/21 - 2200 80.8 28 45.1 58.5 S | 183 3.6 5.8 SW | 222 0 0.0 0.00 0.00 53.5 105.5 0.324 0.0
6/18/21 - 2100 88.3 19 41.2 58.4 SW | 219 4.7 8.8 SW | 230 23 0.0 0.00 0.00 53.5 105.5 0.322 0.0
6/18/21 - 2000 94.5 15 39.2 58.8 SW | 227 6.4 12.5 SW | 236 169 0.0 0.00 0.00 53.5 105.5 0.319 0.0
6/18/21 - 1900 99.0 14 41.4 60.2 WSW | 245 8.3 15.8 WSW | 246 366 0.0 0.00 0.00 53.5 105.5 0.309 0.0
6/18/21 - 1800 102.6 11 37.7 59.6 WSW | 250 8.5 15.2 W | 262 571 0.0 0.00 0.00 53.5 105.5 0.290 0.0
6/18/21 - 1700 104.6 4 14.7 55.5 W | 259 5.3 11.8 W | 268 778 0.0 0.00 0.00 53.5 105.5 0.264 0.0
6/18/21 - 1600 103.6 7 26.0 57.2 SSW | 202 5.2 12.5 SW | 235 932 0.0 0.00 0.00 53.5 104.6 0.236 0.0
6/18/21 - 1500 102.1 10 35.8 59.0 NNE | 33 4.1 9.8 NE | 56 1,030 0.0 0.00 0.00 53.5 103.4 0.202 0.0
6/18/21 - 1400 100.8 12 38.7 59.6 N | 0 4.4 10.8 NNE | 18 1,060 0.0 0.00 0.00 53.5 102.3 0.167 0.0
6/18/21 - 1300 96.7 17 44.2 60.9 NNE | 15 5.0 10.1 NNE | 14 1,065 0.0 0.00 0.00 53.5 99.7 0.131 0.0
6/18/21 - 1200 91.5 22 47.4 61.5 N | 355 4.2 9.5 NNE | 19 1,000 0.0 0.00 0.00 53.5 93.9 0.095 0.0
6/18/21 - 1100 86.6 31 52.4 63.1 NNE | 14 3.3 8.8 NNE | 19 867 0.0 0.00 0.00 53.5 89.2 0.063 0.0
6/18/21 - 1000 81.8 35 51.7 61.9 NNE | 21 2.2 5.1 E | 81 693 0.0 0.00 0.00 53.5 84.4 0.037 0.0
6/18/21 - 0900 76.9 37 48.7 59.3 NE | 34 0.9 3.4 NE | 48 492 0.0 0.00 0.00 53.5 80.3 0.017 0.0
6/18/21 - 0800 68.3 50 48.9 57.1 SSE | 154 0.1 1.7 S | 176 281 0.0 0.00 0.00 53.5 74.4 0.005 0.0
6/18/21 - 0700 57.2 75 49.2 53.4 SSE | 151 0.3 2.1 SE | 142 90 0.0 0.00 0.00 53.5 62.7 0.000 0.0
6/18/21 - 0600 54.1 80 48.1 51.5 S | 187 1.0 2.4 SSW | 200 3 0.0 0.00 0.00 53.5 62.0 0.000 0.0
6/18/21 - 0500 55.8 76 48.2 52.3 SSW | 205 0.8 2.7 SW | 215 0 0.0 0.00 0.00 54.2 62.0 0.000 0.0
6/18/21 - 0400 57.4 70 47.8 52.7 SSE | 165 0.3 2.1 SSE | 153 0 0.0 0.00 0.00 56.8 62.0 0.000 0.0
6/18/21 - 0300 58.6 69 48.4 53.5 S | 179 1.0 3.1 S | 190 0 0.0 0.00 0.00 57.1 62.0 0.000 0.0
6/18/21 - 0200 59.9 66 48.4 54.0 SSE | 158 1.8 3.1 SSE | 154 0 0.0 0.00 0.00 59.1 62.0 0.000 0.0
6/18/21 - 0100 63.4 56 47.2 54.6 SSE | 147 0.6 3.8 ESE | 116 0 0.0 0.00 0.00 50.0 103.0 0.321 0.0
6/18/21 - 0000 67.8 44 45.0 54.9 SSE | 154 1.7 5.8 SSE | 156 0 0.0 0.00 0.00 50.0 103.0 0.321 0.0
6/17/21 - 2300 70.7 40 44.9 55.8 SSE | 149 2.6 4.8 SE | 127 0 0.0 0.00 0.00 50.0 103.0 0.321 0.0
6/17/21 - 2200 76.2 32 44.1 56.9 SSE | 165 3.5 4.8 S | 180 0 0.0 0.00 0.00 50.0 103.0 0.320 0.0
6/17/21 - 2100 83.7 24 42.6 58.0 SSW | 209 4.6 7.8 SW | 226 24 0.0 0.00 0.00 50.0 103.0 0.319 0.0
6/17/21 - 2000 92.6 17 40.5 59.0 WSW | 242 5.2 10.8 W | 268 177 0.0 0.00 0.00 50.0 103.0 0.316 0.0
6/17/21 - 1900 97.5 11 33.1 57.6 W | 266 7.7 12.5 W | 269 381 0.0 0.00 0.00 50.0 103.0 0.307 0.0
6/17/21 - 1800 100.2 10 33.4 58.1 W | 273 8.3 13.8 W | 263 588 0.0 0.00 0.00 50.0 103.0 0.289 0.0
6/17/21 - 1700 101.5 9 30.6 57.7 WSW | 258 7.4 20.9 W | 276 776 0.0 0.00 0.00 50.0 103.0 0.263 0.0
6/17/21 - 1600 101.6 6 23.0 56.2 W | 262 5.5 13.5 WNW | 301 944 0.0 0.00 0.00 50.0 103.0 0.232 0.0
Max 104.6 80 52.9 63.5 - 8.8 20.9 - 1,065 0.0 0.00 0.00 63.4 105.5 0.325 0.0
Avg 80.8 35 43.0 57.3 - 3.4 7.6 - 403 0.0 0.00 - - - - -
Min 54.1 4 14.7 51.5 - 0.0 1.7 - 0 0.0 0.00 0.00 50.0 62.0 0.000 0.0
Total - - - - - - - - - - 0.00 - - - - -